createdAt,value
2022-10-30T00:31:45.445Z,0
2022-10-30T00:32:25.820Z,0
2022-10-30T00:33:06.281Z,0
2022-10-30T00:33:46.744Z,0
2022-10-30T00:34:27.279Z,0
2022-10-30T00:35:07.738Z,0
2022-10-30T00:35:48.190Z,0
2022-10-30T00:36:28.678Z,0
2022-10-30T00:37:09.171Z,0
2022-10-30T00:38:30.187Z,0
2022-10-30T00:45:14.951Z,0
2022-10-30T00:45:55.487Z,0
2022-10-30T00:46:35.956Z,0
2022-10-30T00:47:16.489Z,0
2022-10-30T00:47:57.268Z,0
2022-10-30T00:48:37.454Z,0
2022-10-30T00:49:17.900Z,0
2022-10-30T00:49:58.411Z,0
2022-10-30T00:50:38.914Z,0
2022-10-30T00:51:19.370Z,0
2022-10-30T00:51:59.932Z,0
2022-10-30T00:59:25.287Z,0
2022-10-30T01:00:05.748Z,0
2022-10-30T01:00:46.272Z,0
2022-10-30T01:01:26.928Z,0
2022-10-30T01:02:07.401Z,0
2022-10-30T01:02:47.795Z,0
2022-10-30T01:03:28.194Z,0
2022-10-30T01:04:08.649Z,0
2022-10-30T01:07:22.411Z,0
2022-10-30T01:08:03.017Z,0
2022-10-30T01:08:43.508Z,0
2022-10-30T01:09:23.961Z,0
2022-10-30T01:10:04.445Z,0
2022-10-30T01:10:44.887Z,0
2022-10-30T01:11:25.385Z,0
2022-10-30T01:12:05.890Z,0
2022-10-30T01:12:46.363Z,0
2022-10-30T01:13:26.874Z,0
2022-10-30T01:14:07.390Z,0
2022-10-30T01:20:52.263Z,0
2022-10-30T01:21:32.739Z,0
2022-10-30T01:22:13.278Z,0
2022-10-30T01:22:53.734Z,0
2022-10-30T01:23:34.223Z,0
2022-10-30T01:24:14.680Z,0
2022-10-30T01:24:55.183Z,0
2022-10-30T01:25:35.681Z,0
2022-10-30T01:26:16.170Z,0
2022-10-30T01:26:56.736Z,0
2022-10-30T01:27:37.157Z,0
2022-10-30T01:35:02.588Z,0
2022-10-30T01:35:43.035Z,0
2022-10-30T01:36:23.544Z,0
2022-10-30T01:37:04.071Z,0
2022-10-30T01:37:44.543Z,0
2022-10-30T01:38:25.075Z,0
2022-10-30T01:39:05.485Z,0
2022-10-30T01:39:46.017Z,0
2022-10-30T01:40:26.483Z,0
2022-10-30T01:41:06.975Z,0
2022-10-30T01:41:47.436Z,0
2022-10-30T01:48:32.486Z,0
2022-10-30T01:49:13.036Z,0
2022-10-30T01:49:53.489Z,0
2022-10-30T01:50:34.033Z,0
2022-10-30T01:51:14.528Z,0
2022-10-30T01:51:54.995Z,0
2022-10-30T01:52:35.516Z,0
2022-10-30T01:53:15.942Z,0
2022-10-30T01:53:56.419Z,0
2022-10-30T01:54:36.914Z,0
2022-10-30T01:55:17.424Z,0
2022-10-30T02:01:07.969Z,0
2022-10-30T02:01:48.382Z,0
2022-10-30T02:02:28.821Z,0
2022-10-30T02:03:09.217Z,0
2022-10-30T02:03:49.793Z,0
2022-10-30T02:04:30.269Z,0
2022-10-30T02:05:10.778Z,0
2022-10-30T02:05:51.290Z,0
2022-10-30T02:06:31.837Z,0
2022-10-30T02:07:12.270Z,0
2022-10-30T02:07:52.806Z,0
2022-10-30T02:14:37.749Z,0
2022-10-30T02:15:18.203Z,0
2022-10-30T02:15:58.686Z,0
2022-10-30T02:16:39.177Z,0
2022-10-30T02:17:19.669Z,0
2022-10-30T02:18:00.688Z,0
2022-10-30T02:18:40.746Z,0
2022-10-30T02:19:21.167Z,0
2022-10-30T02:20:01.703Z,0
2022-10-30T02:21:22.590Z,0
2022-10-30T02:28:07.567Z,0
2022-10-30T02:28:48.001Z,0
2022-10-30T02:29:28.462Z,0
2022-10-30T02:30:08.977Z,0
2022-10-30T02:30:49.491Z,0
2022-10-30T02:31:29.954Z,0
2022-10-30T02:32:10.437Z,0
2022-10-30T02:32:50.962Z,0
2022-10-30T02:36:25.363Z,0
2022-10-30T02:37:05.758Z,0
2022-10-30T02:37:46.243Z,0
2022-10-30T02:38:26.711Z,0
2022-10-30T02:39:07.258Z,0
2022-10-30T02:39:47.699Z,0
2022-10-30T02:40:28.195Z,0
2022-10-30T02:41:08.713Z,0
2022-10-30T02:41:49.170Z,0
2022-10-30T02:42:29.734Z,0
2022-10-30T02:43:10.200Z,0
2022-10-30T02:49:55.270Z,0
2022-10-30T02:50:35.739Z,0
2022-10-30T02:51:16.254Z,0
2022-10-30T02:51:56.727Z,0
2022-10-30T02:52:37.194Z,0
2022-10-30T02:53:17.744Z,0
2022-10-30T02:53:58.206Z,0
2022-10-30T02:54:38.744Z,0
2022-10-30T02:55:19.234Z,0
2022-10-30T02:56:40.266Z,0
2022-10-30T03:03:25.145Z,0
2022-10-30T03:04:05.631Z,0
2022-10-30T03:04:46.111Z,0
2022-10-30T03:05:26.595Z,0
2022-10-30T03:06:07.071Z,0
2022-10-30T03:06:47.593Z,0
2022-10-30T03:07:28.093Z,0
2022-10-30T03:08:08.590Z,0
2022-10-30T03:08:49.080Z,0
2022-10-30T03:09:29.650Z,0
2022-10-30T03:10:10.063Z,0
2022-10-30T03:17:35.363Z,0
2022-10-30T03:18:15.799Z,0
2022-10-30T03:18:56.265Z,0
2022-10-30T03:19:36.775Z,0
2022-10-30T03:20:17.288Z,0
2022-10-30T03:20:57.765Z,0
2022-10-30T03:21:38.240Z,0
2022-10-30T03:22:18.783Z,0
2022-10-30T03:22:59.325Z,0
2022-10-30T03:23:39.806Z,0
2022-10-30T03:31:21.953Z,0
2022-10-30T03:32:04.104Z,0
2022-10-30T03:32:44.647Z,0
2022-10-30T03:33:25.060Z,0
2022-10-30T03:34:05.580Z,0
2022-10-30T03:34:46.026Z,0
2022-10-30T03:35:26.617Z,0
2022-10-30T03:42:51.899Z,0
2022-10-30T03:43:32.437Z,0
2022-10-30T03:44:12.914Z,0
2022-10-30T03:44:53.375Z,0
2022-10-30T03:45:33.896Z,0
2022-10-30T03:46:14.365Z,0
2022-10-30T03:46:54.900Z,0
2022-10-30T03:47:35.356Z,0
2022-10-30T03:48:15.832Z,0
2022-10-30T03:48:56.333Z,0
2022-10-30T03:56:21.627Z,0
2022-10-30T03:57:02.141Z,0
2022-10-30T03:57:42.725Z,0
2022-10-30T03:58:23.126Z,0
2022-10-30T03:59:03.593Z,0
2022-10-30T03:59:44.129Z,0
2022-10-30T04:00:24.578Z,0
2022-10-30T04:01:05.157Z,0
2022-10-30T04:01:45.716Z,0
2022-10-30T04:02:26.031Z,0
2022-10-30T04:03:06.524Z,0
2022-10-30T04:08:31.503Z,0
2022-10-30T04:09:12.062Z,0
2022-10-30T04:09:53.347Z,0
2022-10-30T04:10:33.883Z,0
2022-10-30T04:11:14.337Z,0
2022-10-30T04:11:54.786Z,0
2022-10-30T04:13:16.499Z,0
2022-10-30T04:20:01.470Z,0
2022-10-30T04:20:41.910Z,0
2022-10-30T04:21:22.482Z,0
2022-10-30T04:22:02.902Z,0
2022-10-30T04:22:44.249Z,0
2022-10-30T04:23:24.783Z,0
2022-10-30T04:24:05.270Z,0
2022-10-30T04:24:45.760Z,0
2022-10-30T04:25:26.200Z,0
2022-10-30T04:32:51.616Z,0
2022-10-30T04:33:32.010Z,0
2022-10-30T04:34:12.505Z,0
2022-10-30T04:37:27.205Z,0
2022-10-30T04:38:07.749Z,0
2022-10-30T04:38:48.280Z,0
2022-10-30T04:39:28.710Z,0
2022-10-30T04:40:09.243Z,0
2022-10-30T04:40:49.736Z,0
2022-10-30T04:41:30.251Z,0
2022-10-30T04:42:10.747Z,0
2022-10-30T04:42:51.289Z,0
2022-10-30T04:50:16.650Z,0
2022-10-30T04:50:57.175Z,0
2022-10-30T04:51:37.650Z,0
2022-10-30T04:52:18.178Z,0
2022-10-30T04:52:58.669Z,0
2022-10-30T04:53:39.150Z,0
2022-10-30T04:54:19.668Z,0
2022-10-30T04:55:00.167Z,0
2022-10-30T04:55:40.610Z,0
2022-10-30T04:56:21.127Z,0
2022-10-30T04:57:01.592Z,0
2022-10-30T05:03:48.046Z,0
2022-10-30T05:04:27.290Z,0
2022-10-30T05:05:08.645Z,0
2022-10-30T05:05:49.131Z,0
2022-10-30T05:06:29.608Z,0
2022-10-30T05:07:10.096Z,0
2022-10-30T05:07:50.640Z,0
2022-10-30T05:08:31.157Z,0
2022-10-30T05:09:11.595Z,0
2022-10-30T05:15:56.759Z,0
2022-10-30T05:16:37.241Z,0
2022-10-30T05:17:17.875Z,0
2022-10-30T05:17:58.544Z,0
2022-10-30T05:18:38.698Z,0
2022-10-30T05:19:19.181Z,0
2022-10-30T05:19:59.642Z,0
2022-10-30T05:20:40.140Z,0
2022-10-30T05:21:20.593Z,0
2022-10-30T05:22:01.117Z,0
2022-10-30T05:22:41.579Z,0
2022-10-30T05:29:26.757Z,0
2022-10-30T05:30:07.233Z,0
2022-10-30T05:30:47.667Z,0
2022-10-30T05:31:28.142Z,0
2022-10-30T05:32:08.780Z,0
2022-10-30T05:32:49.187Z,0
2022-10-30T05:33:29.721Z,0
2022-10-30T05:34:10.173Z,0
2022-10-30T05:34:50.661Z,0
2022-10-30T05:35:31.242Z,0
2022-10-30T05:36:11.675Z,0
2022-10-30T05:43:37.056Z,0
2022-10-30T05:44:28.760Z,0
2022-10-30T05:45:01.232Z,0
2022-10-30T05:45:38.980Z,0
2022-10-30T05:46:19.208Z,0
2022-10-30T05:46:59.636Z,0
2022-10-30T05:47:40.145Z,0
2022-10-30T05:48:20.669Z,0
2022-10-30T05:49:01.206Z,0
2022-10-30T05:49:41.641Z,0
2022-10-30T06:32:03.785Z,144
2022-10-30T06:32:42.378Z,152
2022-10-30T06:33:22.797Z,164
2022-10-30T06:34:03.289Z,176
2022-10-30T06:34:43.766Z,184
2022-10-30T06:35:24.282Z,196
2022-10-30T06:36:04.781Z,212
2022-10-30T06:36:45.188Z,224
2022-10-30T06:42:50.409Z,304
2022-10-30T06:43:30.872Z,316
2022-10-30T06:44:11.333Z,328
2022-10-30T06:44:51.810Z,340
2022-10-30T06:45:32.444Z,360
2022-10-30T06:46:12.802Z,388
2022-10-30T06:46:53.256Z,412
2022-10-30T06:47:33.717Z,424
2022-10-30T06:48:14.194Z,432
2022-10-30T06:48:54.655Z,444
2022-10-30T06:49:35.146Z,464
2022-10-30T06:57:00.535Z,844
2022-10-30T06:57:40.991Z,868
2022-10-30T06:58:21.485Z,892
2022-10-30T06:59:02.075Z,972
2022-10-30T06:59:42.569Z,1028
2022-10-30T07:00:23.000Z,1064
2022-10-30T07:01:03.533Z,1088
2022-10-30T07:01:44.083Z,1112
2022-10-30T07:02:24.617Z,1132
2022-10-30T07:03:05.094Z,1144
2022-10-30T07:03:45.514Z,1164
2022-10-30T07:10:30.452Z,1400
2022-10-30T07:11:11.014Z,1424
2022-10-30T07:11:55.908Z,1452
2022-10-30T07:12:31.912Z,1464
2022-10-30T07:13:12.389Z,1472
2022-10-30T07:13:52.900Z,1468
2022-10-30T07:14:33.365Z,1476
2022-10-30T07:15:13.876Z,1484
2022-10-30T07:15:54.331Z,1484
2022-10-30T07:16:34.799Z,1428
2022-10-30T07:17:15.318Z,1476
2022-10-30T07:24:00.993Z,1372
2022-10-30T07:24:40.590Z,1360
2022-10-30T07:25:21.015Z,1320
2022-10-30T07:26:03.993Z,1308
2022-10-30T07:26:41.990Z,1256
2022-10-30T07:27:22.422Z,1208
2022-10-30T07:28:03.253Z,1180
2022-10-30T07:28:43.428Z,1156
2022-10-30T07:29:23.968Z,1152
2022-10-30T07:30:04.402Z,1152
2022-10-30T07:30:44.837Z,1136
2022-10-30T07:31:34.692Z,1132
2022-10-30T07:38:10.113Z,1160
2022-10-30T07:38:50.624Z,1152
2022-10-30T07:39:31.073Z,1140
2022-10-30T07:40:12.878Z,1128
2022-10-30T07:40:52.072Z,1120
2022-10-30T07:41:32.521Z,1104
2022-10-30T07:42:13.015Z,1100
2022-10-30T07:43:34.022Z,1108
2022-10-30T07:44:14.499Z,1116
2022-10-30T07:44:54.996Z,1116
2022-10-30T07:52:20.238Z,1076
2022-10-30T07:53:00.699Z,1092
2022-10-30T07:53:41.141Z,1092
2022-10-30T07:54:21.649Z,1128
2022-10-30T07:55:02.088Z,1160
2022-10-30T07:55:42.608Z,1108
2022-10-30T07:56:23.067Z,1180
2022-10-30T07:57:03.537Z,1200
2022-10-30T07:57:44.012Z,1220
2022-10-30T07:58:24.597Z,1240
2022-10-30T07:59:05.031Z,1252
2022-10-30T07:59:45.591Z,1268
2022-10-30T08:03:50.511Z,1332
2022-10-30T08:04:30.994Z,1344
2022-10-30T08:05:11.514Z,1352
2022-10-30T08:05:51.959Z,1360
2022-10-30T08:06:32.448Z,1372
2022-10-30T08:07:12.958Z,1380
2022-10-30T08:07:54.002Z,1380
2022-10-30T08:08:36.696Z,1380
2022-10-30T08:16:00.309Z,1276
2022-10-30T08:16:40.758Z,1276
2022-10-30T08:17:21.277Z,1272
2022-10-30T08:18:01.945Z,1272
2022-10-30T08:18:42.265Z,1200
2022-10-30T08:19:22.786Z,1160
2022-10-30T08:20:03.239Z,1160
2022-10-30T08:20:43.794Z,1204
2022-10-30T08:21:24.311Z,1228
2022-10-30T08:22:04.740Z,1216
2022-10-30T08:22:45.228Z,1196
2022-10-30T08:27:07.916Z,1220
2022-10-30T08:28:02.711Z,1196
2022-10-30T08:30:31.129Z,1192
2022-10-30T08:31:11.661Z,1176
2022-10-30T08:31:52.143Z,1116
2022-10-30T08:32:32.670Z,1100
2022-10-30T08:33:13.184Z,1096
2022-10-30T08:33:53.666Z,1116
2022-10-30T08:34:34.169Z,1120
2022-10-30T08:35:19.561Z,1100
2022-10-30T08:35:55.726Z,1080
2022-10-30T08:43:21.247Z,1116
2022-10-30T08:44:01.728Z,1132
2022-10-30T08:44:42.282Z,1144
2022-10-30T08:45:26.338Z,1152
2022-10-30T08:46:03.228Z,1156
2022-10-30T08:46:43.718Z,1160
2022-10-30T08:47:24.233Z,1124
2022-10-30T08:48:04.806Z,1108
2022-10-30T08:48:45.790Z,1072
2022-10-30T08:56:11.138Z,1116
2022-10-30T08:56:51.637Z,1120
2022-10-30T08:57:32.964Z,1124
2022-10-30T09:01:02.312Z,1116
2022-10-30T09:01:43.443Z,1104
2022-10-30T09:02:24.427Z,1104
2022-10-30T09:03:05.487Z,1104
2022-10-30T09:03:46.505Z,1100
2022-10-30T09:06:32.383Z,1072
2022-10-30T09:07:13.448Z,1112
2022-10-30T09:07:54.386Z,1124
2022-10-30T09:08:35.378Z,1124
2022-10-30T09:09:16.354Z,1120
2022-10-30T09:09:57.405Z,1124
2022-10-30T09:13:22.410Z,1124
2022-10-30T09:14:03.377Z,1112
2022-10-30T09:14:45.515Z,1120
2022-10-30T09:15:26.516Z,1136
2022-10-30T09:18:51.934Z,1116
2022-10-30T09:19:32.977Z,1148
2022-10-30T09:20:14.008Z,1144
2022-10-30T09:20:55.061Z,1140
2022-10-30T09:21:36.068Z,1152
2022-10-30T09:22:17.048Z,1156
2022-10-30T09:26:38.560Z,1160
2022-10-30T09:27:18.988Z,1160
2022-10-30T09:27:59.464Z,1156
2022-10-30T09:28:39.960Z,1160
2022-10-30T09:33:23.580Z,1128
2022-10-30T09:34:04.025Z,1124
2022-10-30T09:34:44.616Z,1132
2022-10-30T09:35:25.102Z,1132
2022-10-30T09:36:05.559Z,1136
2022-10-30T09:36:46.066Z,1112
2022-10-30T09:37:26.717Z,1124
2022-10-30T09:38:07.217Z,1128
2022-10-30T09:38:47.712Z,1108
2022-10-30T09:39:28.213Z,1112
2022-10-30T09:46:13.248Z,1120
2022-10-30T09:46:53.768Z,1116
2022-10-30T09:47:34.335Z,1116
2022-10-30T09:48:14.852Z,1116
2022-10-30T09:48:55.306Z,1120
2022-10-30T09:55:43.359Z,1092
2022-10-30T09:56:23.842Z,1088
2022-10-30T09:57:04.318Z,1080
2022-10-30T09:57:44.828Z,1092
2022-10-30T09:58:25.335Z,1092
2022-10-30T09:59:05.768Z,1072
2022-10-30T09:59:46.972Z,1084
2022-10-30T10:00:27.421Z,1104
2022-10-30T10:01:07.980Z,1092
2022-10-30T10:01:48.537Z,1096
2022-10-30T10:07:53.674Z,1092
2022-10-30T10:08:34.212Z,1108
2022-10-30T10:09:14.673Z,1076
2022-10-30T10:09:55.233Z,1056
2022-10-30T10:10:35.653Z,1056
2022-10-30T10:11:16.160Z,1044
2022-10-30T10:11:56.937Z,1072
2022-10-30T10:12:37.146Z,1104
2022-10-30T10:13:17.695Z,1100
2022-10-30T10:13:58.205Z,1076
2022-10-30T10:20:43.727Z,1124
2022-10-30T10:21:24.195Z,1112
2022-10-30T10:22:04.675Z,1120
2022-10-30T10:22:45.201Z,1108
2022-10-30T10:23:25.827Z,1092
2022-10-30T10:24:06.281Z,1064
2022-10-30T10:24:46.732Z,1048
2022-10-30T10:25:27.240Z,1020
2022-10-30T10:26:07.832Z,1024
2022-10-30T10:26:48.358Z,1020
2022-10-30T10:33:33.380Z,1100
2022-10-30T10:34:13.832Z,1080
2022-10-30T10:34:54.463Z,1100
2022-10-30T10:35:34.878Z,1108
2022-10-30T10:36:15.376Z,1140
2022-10-30T10:36:55.808Z,1096
2022-10-30T10:37:36.357Z,1124
2022-10-30T10:38:17.096Z,1140
2022-10-30T10:38:57.593Z,1140
2022-10-30T10:39:38.030Z,1128
2022-10-30T10:40:18.536Z,1132
2022-10-30T10:46:23.485Z,1152
2022-10-30T10:47:07.091Z,1152
2022-10-30T10:47:44.496Z,1156
2022-10-30T10:48:24.963Z,1152
2022-10-30T10:49:05.414Z,1108
2022-10-30T10:49:45.929Z,1116
2022-10-30T10:50:26.432Z,1088
2022-10-30T10:51:06.884Z,1084
2022-10-30T10:51:47.425Z,1096
2022-10-30T10:52:27.942Z,1096
2022-10-30T10:53:08.480Z,1092
2022-10-30T10:59:13.334Z,904
2022-10-30T10:59:53.829Z,932
2022-10-30T11:00:34.308Z,932
2022-10-30T11:01:14.994Z,940
2022-10-30T11:01:55.434Z,956
2022-10-30T11:02:35.924Z,948
2022-10-30T11:03:56.886Z,980
2022-10-30T11:04:37.390Z,984
2022-10-30T11:05:17.870Z,1000
2022-10-30T11:05:58.376Z,1008
2022-10-30T11:11:23.608Z,1036
2022-10-30T11:12:04.133Z,1048
2022-10-30T11:12:44.687Z,1060
2022-10-30T11:13:25.113Z,1072
2022-10-30T11:14:05.597Z,1088
2022-10-30T11:14:46.157Z,1096
2022-10-30T11:15:27.000Z,1108
2022-10-30T11:16:07.528Z,1128
2022-10-30T11:16:48.052Z,1140
2022-10-30T11:17:28.569Z,1120
2022-10-30T11:21:33.444Z,1200
2022-10-30T11:22:13.955Z,1188
2022-10-30T11:22:54.445Z,1196
2022-10-30T11:23:34.938Z,1192
2022-10-30T11:24:15.450Z,1168
2022-10-30T11:24:56.023Z,1188
2022-10-30T11:25:36.488Z,1152
2022-10-30T11:26:17.046Z,1184
2022-10-30T11:26:57.574Z,1176
2022-10-30T11:27:38.055Z,1156
2022-10-30T11:28:18.549Z,1204
2022-10-30T11:34:23.580Z,1136
2022-10-30T11:35:04.120Z,1124
2022-10-30T11:35:44.643Z,1144
2022-10-30T11:36:25.133Z,1140
2022-10-30T11:37:05.615Z,1132
2022-10-30T11:37:46.142Z,1116
2022-10-30T11:38:26.659Z,1080
2022-10-30T11:39:07.110Z,1044
2022-10-30T11:39:47.594Z,1032
2022-10-30T11:40:28.137Z,1036
2022-10-30T11:41:08.757Z,1032
2022-10-30T11:47:13.531Z,980
2022-10-30T11:47:54.484Z,976
2022-10-30T11:48:34.497Z,964
2022-10-30T11:49:15.007Z,948
2022-10-30T11:49:55.482Z,944
2022-10-30T11:50:35.961Z,940
2022-10-30T11:51:16.617Z,932
2022-10-30T11:51:57.098Z,916
2022-10-30T11:52:37.649Z,896
2022-10-30T11:53:18.143Z,888
2022-10-30T12:32:15.962Z,1048
2022-10-30T12:32:56.301Z,1048
2022-10-30T12:33:36.537Z,1052
2022-10-30T12:34:16.994Z,1048
2022-10-30T12:34:57.604Z,1044
2022-10-30T12:35:38.150Z,1032
2022-10-30T12:36:18.522Z,1028
2022-10-30T12:36:58.995Z,1024
2022-10-30T12:37:39.458Z,1024
2022-10-30T12:44:24.453Z,1092
2022-10-30T12:45:04.957Z,1088
2022-10-30T12:45:45.495Z,1092
2022-10-30T12:46:26.069Z,1084
2022-10-30T12:47:06.551Z,1084
2022-10-30T12:47:47.072Z,1096
2022-10-30T12:48:27.596Z,1096
2022-10-30T12:49:08.099Z,1088
2022-10-30T12:49:48.569Z,1096
2022-10-30T12:50:29.098Z,1100
2022-10-30T12:51:09.524Z,1108
2022-10-30T12:57:54.440Z,1140
2022-10-30T12:58:34.920Z,1148
2022-10-30T12:59:15.421Z,1140
2022-10-30T12:59:55.903Z,1144
2022-10-30T13:00:36.450Z,1156
2022-10-30T13:01:17.007Z,1152
2022-10-30T13:01:57.496Z,1128
2022-10-30T13:02:37.852Z,1120
2022-10-30T13:03:18.362Z,1116
2022-10-30T13:03:58.776Z,1104
2022-10-30T13:04:39.304Z,1080
2022-10-30T13:11:24.284Z,1008
2022-10-30T13:12:04.781Z,1000
2022-10-30T13:12:45.241Z,1000
2022-10-30T13:13:25.706Z,1000
2022-10-30T13:14:06.223Z,1008
2022-10-30T13:14:46.655Z,1004
2022-10-30T13:15:27.160Z,1000
2022-10-30T13:16:48.131Z,984
2022-10-30T13:17:28.628Z,976
2022-10-30T13:18:09.118Z,980
2022-10-30T13:25:34.471Z,968
2022-10-30T13:26:14.973Z,964
2022-10-30T13:26:55.489Z,960
2022-10-30T13:27:36.013Z,956
2022-10-30T13:28:16.475Z,956
2022-10-30T13:28:57.003Z,944
2022-10-30T13:29:37.453Z,940
2022-10-30T13:30:17.925Z,932
2022-10-30T13:30:58.459Z,924
2022-10-30T13:31:38.952Z,912
2022-10-30T13:32:19.378Z,904
2022-10-30T13:39:04.309Z,824
2022-10-30T13:39:44.814Z,816
2022-10-30T13:40:25.314Z,812
2022-10-30T13:41:05.759Z,812
2022-10-30T13:41:46.263Z,816
2022-10-30T13:42:26.709Z,816
2022-10-30T13:43:07.202Z,816
2022-10-30T13:43:47.710Z,816
2022-10-30T13:44:28.177Z,820
2022-10-30T13:45:08.667Z,820
2022-10-30T13:45:49.150Z,816
2022-10-30T13:51:54.399Z,792
2022-10-30T13:52:34.888Z,788
2022-10-30T13:53:15.314Z,780
2022-10-30T13:53:55.895Z,772
2022-10-30T13:54:36.349Z,768
2022-10-30T13:55:16.896Z,764
2022-10-30T13:55:57.406Z,760
2022-10-30T13:56:37.884Z,764
2022-10-30T13:57:18.393Z,760
2022-10-30T13:57:58.915Z,764
2022-10-30T13:58:39.344Z,764
2022-10-30T14:05:24.506Z,768
2022-10-30T14:06:04.919Z,768
2022-10-30T14:06:45.428Z,764
2022-10-30T14:07:25.916Z,760
2022-10-30T14:08:06.578Z,760
2022-10-30T14:08:46.949Z,756
2022-10-30T14:09:27.414Z,748
2022-10-30T14:10:07.929Z,748
2022-10-30T14:10:48.439Z,740
2022-10-30T14:11:28.932Z,732
2022-10-30T14:16:14.318Z,684
2022-10-30T14:16:54.805Z,680
2022-10-30T14:17:35.298Z,676
2022-10-30T14:18:15.767Z,672
2022-10-30T14:18:56.253Z,664
2022-10-30T14:19:36.797Z,656
2022-10-30T14:20:17.389Z,648
2022-10-30T14:20:57.807Z,644
2022-10-30T14:21:38.228Z,640
2022-10-30T14:22:18.751Z,636
2022-10-30T14:22:59.551Z,632
2022-10-30T14:27:54.020Z,656
2022-10-30T14:28:34.478Z,660
2022-10-30T14:29:14.966Z,648
2022-10-30T14:29:55.463Z,636
2022-10-30T14:30:35.915Z,628
2022-10-30T14:31:16.462Z,624
2022-10-30T14:31:56.963Z,624
2022-10-30T14:32:37.595Z,616
2022-10-30T14:33:17.998Z,612
2022-10-30T14:33:58.480Z,608
2022-10-30T14:34:38.984Z,608
2022-10-30T14:41:23.991Z,616
2022-10-30T14:42:04.390Z,620
2022-10-30T14:42:44.922Z,616
2022-10-30T14:43:25.507Z,620
2022-10-30T14:44:05.974Z,608
2022-10-30T14:45:26.926Z,592
2022-10-30T14:46:07.420Z,584
2022-10-30T14:46:47.938Z,576
2022-10-30T14:47:28.433Z,564
2022-10-30T14:54:18.097Z,508
2022-10-30T14:54:54.405Z,496
2022-10-30T14:55:34.912Z,480
2022-10-30T14:56:55.917Z,472
2022-10-30T14:57:36.406Z,468
2022-10-30T14:58:17.003Z,468
2022-10-30T14:58:57.390Z,472
2022-10-30T14:59:37.914Z,488
2022-10-30T15:00:18.404Z,520
2022-10-30T15:00:58.886Z,576
2022-10-30T15:07:43.798Z,1428
2022-10-30T15:08:24.282Z,1468
2022-10-30T15:09:04.834Z,1412
2022-10-30T15:09:45.293Z,1368
2022-10-30T15:10:25.795Z,1296
2022-10-30T15:11:06.318Z,1300
2022-10-30T15:11:46.731Z,1344
2022-10-30T15:12:30.243Z,1408
2022-10-30T15:13:08.066Z,1392
2022-10-30T15:13:48.181Z,1352
2022-10-30T15:14:40.360Z,1340
2022-10-30T15:21:13.718Z,948
2022-10-30T15:21:54.278Z,868
2022-10-30T15:25:28.305Z,860
2022-10-30T15:26:09.996Z,772
2022-10-30T15:26:49.253Z,592
2022-10-30T15:27:29.702Z,420
2022-10-30T15:28:10.224Z,352
2022-10-30T15:28:50.659Z,344
2022-10-30T15:29:31.200Z,332
2022-10-30T15:30:11.724Z,324
2022-10-30T15:30:52.200Z,320
2022-10-30T15:31:32.665Z,312
2022-10-30T15:32:13.241Z,304
2022-10-30T15:38:58.186Z,244
2022-10-30T15:39:38.656Z,240
2022-10-30T15:40:59.674Z,228
2022-10-30T15:41:40.156Z,224
2022-10-30T15:42:20.640Z,216
2022-10-30T15:43:01.580Z,212
2022-10-30T15:43:41.622Z,204
2022-10-30T15:44:22.123Z,196
2022-10-30T15:45:02.719Z,192
2022-10-30T15:48:16.316Z,172
2022-10-30T15:48:56.889Z,168
2022-10-30T15:49:37.279Z,160
2022-10-30T15:50:17.766Z,156
2022-10-30T15:57:36.865Z,104
2022-10-30T15:58:02.147Z,96
2022-10-30T15:58:23.674Z,92
2022-10-30T15:59:04.152Z,84
2022-10-30T15:59:44.655Z,84
2022-10-30T16:00:25.156Z,80
2022-10-30T16:01:05.792Z,72
2022-10-30T16:01:46.324Z,68
2022-10-30T16:02:27.018Z,64
2022-10-30T16:03:48.394Z,56
2022-10-30T16:10:32.750Z,28
2022-10-30T16:11:13.245Z,24
2022-10-30T16:11:53.737Z,20
2022-10-30T16:12:34.249Z,20
2022-10-30T16:13:14.780Z,20
2022-10-30T16:13:55.837Z,16
2022-10-30T16:14:36.326Z,16
2022-10-30T16:15:16.827Z,16
2022-10-30T16:15:57.308Z,16
2022-10-30T16:16:37.783Z,12
2022-10-30T16:23:22.694Z,8
2022-10-30T16:24:03.207Z,4
2022-10-30T16:24:43.669Z,4
2022-10-30T16:25:24.153Z,8
2022-10-30T16:26:04.635Z,4
2022-10-30T16:26:45.169Z,4
2022-10-30T16:27:25.659Z,4
2022-10-30T16:28:06.113Z,0
2022-10-30T16:28:46.650Z,0
2022-10-30T16:29:27.106Z,4
2022-10-30T16:30:07.708Z,4
2022-10-30T16:36:12.512Z,0
2022-10-30T16:36:53.093Z,0
2022-10-30T16:37:33.915Z,0
2022-10-30T16:38:14.711Z,0
2022-10-30T16:38:55.077Z,0
2022-10-30T16:39:35.633Z,0
2022-10-30T16:40:16.149Z,0
2022-10-30T16:40:57.180Z,0
2022-10-30T16:47:42.802Z,0
2022-10-30T16:48:23.383Z,0
2022-10-30T16:49:03.893Z,0
2022-10-30T16:49:45.717Z,0
2022-10-30T16:50:24.911Z,0
2022-10-30T16:51:05.359Z,0
2022-10-30T16:51:45.833Z,0
2022-10-30T16:52:26.313Z,0
2022-10-30T16:53:06.794Z,0
2022-10-30T16:53:47.328Z,0
2022-10-30T16:59:52.557Z,0
2022-10-30T17:00:36.339Z,0
2022-10-30T17:01:13.882Z,0
2022-10-30T17:01:54.234Z,0
2022-10-30T17:02:34.643Z,0
2022-10-30T17:03:15.094Z,0
2022-10-30T17:03:55.611Z,0
2022-10-30T17:05:16.743Z,0
2022-10-30T17:05:57.321Z,0
2022-10-30T17:12:42.710Z,0
2022-10-30T17:13:23.171Z,0
2022-10-30T17:14:03.791Z,0
2022-10-30T17:14:44.206Z,0
2022-10-30T17:15:24.831Z,0
2022-10-30T17:16:05.283Z,0
2022-10-30T17:16:45.789Z,0
2022-10-30T17:17:26.273Z,0
2022-10-30T17:18:06.787Z,0
2022-10-30T17:18:47.244Z,0
2022-10-30T17:19:27.732Z,0
2022-10-30T17:26:12.833Z,0
2022-10-30T17:26:53.333Z,0
2022-10-30T17:27:33.822Z,0
2022-10-30T17:28:14.377Z,0
2022-10-30T17:28:54.778Z,0
2022-10-30T17:29:35.300Z,0
2022-10-30T17:30:16.704Z,0
2022-10-30T17:30:57.221Z,0
2022-10-30T17:31:37.826Z,0
2022-10-30T17:38:22.817Z,0
2022-10-30T17:39:03.330Z,0
2022-10-30T17:39:43.779Z,0
2022-10-30T17:40:24.371Z,0
2022-10-30T17:41:04.789Z,0
2022-10-30T17:41:45.280Z,0
2022-10-30T17:42:25.761Z,0
2022-10-30T17:43:06.271Z,0
2022-10-30T17:43:46.807Z,0
2022-10-30T17:44:27.324Z,0
2022-10-30T17:45:07.816Z,0
2022-10-30T17:51:52.779Z,0
2022-10-30T17:52:33.304Z,0
2022-10-30T17:53:13.823Z,0
2022-10-30T17:53:54.317Z,0
2022-10-30T17:54:34.974Z,0
2022-10-30T18:34:07.301Z,0
2022-10-30T18:34:47.575Z,0
2022-10-30T18:35:28.085Z,0
2022-10-30T18:36:08.562Z,0
2022-10-30T18:36:49.074Z,0
2022-10-30T18:37:29.533Z,0
2022-10-30T18:38:10.047Z,0
2022-10-30T18:38:50.592Z,0
2022-10-30T18:39:31.167Z,0
2022-10-30T18:40:11.622Z,0
2022-10-30T18:47:01.762Z,0
2022-10-30T18:47:37.022Z,0
2022-10-30T18:48:17.565Z,0
2022-10-30T18:48:57.991Z,0
2022-10-30T18:49:38.507Z,0
2022-10-30T18:50:18.968Z,0
2022-10-30T18:50:59.431Z,0
2022-10-30T18:51:39.958Z,0
2022-10-30T18:52:20.426Z,0
2022-10-30T18:53:41.496Z,0
2022-10-30T19:01:11.773Z,0
2022-10-30T19:01:47.484Z,0
2022-10-30T19:02:27.894Z,0
2022-10-30T19:03:08.348Z,0
2022-10-30T19:03:48.851Z,0
2022-10-30T19:04:29.415Z,0
2022-10-30T19:05:10.150Z,0
2022-10-30T19:05:50.586Z,0
2022-10-30T19:06:31.051Z,0
2022-10-30T19:07:11.566Z,0
2022-10-30T19:13:56.569Z,0
2022-10-30T19:14:36.998Z,0
2022-10-30T19:15:17.455Z,0
2022-10-30T19:16:00.571Z,0
2022-10-30T19:16:38.499Z,0
2022-10-30T19:17:18.947Z,0
2022-10-30T19:17:59.701Z,0
2022-10-30T19:18:39.948Z,0
2022-10-30T19:19:20.435Z,0
2022-10-30T19:20:00.941Z,0
2022-10-30T19:21:03.117Z,0
2022-10-30T19:28:06.685Z,0
2022-10-30T19:28:47.220Z,0
2022-10-30T19:29:27.691Z,0
2022-10-30T19:30:08.207Z,0
2022-10-30T19:30:48.700Z,0
2022-10-30T19:31:29.237Z,0
2022-10-30T19:32:09.677Z,0
2022-10-30T19:32:50.198Z,0
2022-10-30T19:33:30.655Z,0
2022-10-30T19:34:11.102Z,0
2022-10-30T19:34:51.620Z,0
2022-10-30T19:41:36.558Z,0
2022-10-30T19:42:17.026Z,0
2022-10-30T19:42:57.739Z,0
2022-10-30T19:43:37.971Z,0
2022-10-30T19:44:18.456Z,0
2022-10-30T19:44:58.979Z,0
2022-10-30T19:45:39.467Z,0
2022-10-30T19:46:19.949Z,0
2022-10-30T19:47:00.475Z,0
2022-10-30T19:47:40.951Z,0
2022-10-30T19:49:08.668Z,0
2022-10-30T19:49:49.242Z,0
2022-10-30T19:50:29.696Z,0
2022-10-30T19:51:10.228Z,0
2022-10-30T19:51:50.704Z,0
2022-10-30T19:52:31.178Z,0
2022-10-30T19:53:11.662Z,0
2022-10-30T20:00:36.980Z,0
2022-10-30T20:01:17.590Z,0
2022-10-30T20:01:58.054Z,0
2022-10-30T20:02:38.430Z,0
2022-10-30T20:03:18.857Z,0
2022-10-30T20:03:59.409Z,0
2022-10-30T20:04:39.917Z,0
2022-10-30T20:05:20.377Z,0